TimeAKDT,TemperatureF,Dew PointF,Humidity,Sea Level PressureIn,VisibilityMPH,Wind Direction,Wind SpeedMPH,Gust SpeedMPH,PrecipitationIn,Events,Conditions,WindDirDegrees,DateUTC
12:53 AM,24.1,15.1,69,30.44,9.0,West,17.3,-,0.00,Snow,Light Snow,260,2012-11-01 08:53:00
1:05 AM,24.8,15.8,69,30.43,9.0,West,17.3,-,0.00,Snow,Light Snow,260,2012-11-01 09:05:00
1:15 AM,24.8,17.6,74,30.42,4.0,WSW,17.3,-,0.00,Snow,Light Snow,250,2012-11-01 09:15:00
1:29 AM,24.8,17.6,74,30.42,4.0,West,18.4,-,0.00,Snow,Light Snow,260,2012-11-01 09:29:00
1:35 AM,24.8,17.6,74,30.41,2.5,WSW,20.7,25.3,0.00,Snow,Light Snow,250,2012-11-01 09:35:00
1:39 AM,24.8,19.4,80,30.41,1.5,WSW,20.7,-,0.00,Snow,Light Snow,250,2012-11-01 09:39:00
1:53 AM,24.1,19.0,81,30.41,2.0,WSW,19.6,26.5,0.00,Snow,Light Snow,250,2012-11-01 09:53:00
2:01 AM,23.0,19.4,86,30.40,1.8,WSW,23.0,-,0.00,Snow,Light Snow,240,2012-11-01 10:01:00
2:21 AM,23.0,19.4,86,30.39,2.0,WSW,25.3,-,0.00,Snow,Light Snow,240,2012-11-01 10:21:00
2:53 AM,24.1,19.0,81,30.38,3.0,WSW,24.2,31.1,0.00,Snow,Light Snow,240,2012-11-01 10:53:00
3:53 AM,24.1,19.9,84,30.34,3.0,SW,24.2,31.1,0.00,Snow,Light Snow,230,2012-11-01 11:53:00
4:10 AM,24.8,19.4,80,30.33,4.0,SW,24.2,31.1,0.00,Snow,Light Snow,230,2012-11-01 12:10:00
4:43 AM,24.8,19.4,80,30.31,5.0,WSW,26.5,-,0.00,Snow,Light Snow,240,2012-11-01 12:43:00
4:51 AM,24.8,19.4,80,30.31,7.0,WSW,24.2,-,0.00,Snow,Light Snow,240,2012-11-01 12:51:00
4:53 AM,24.8,19.4,80,30.30,8.0,WSW,23.0,-,N/A,Snow,Light Snow,240,2012-11-01 12:53:00
5:51 AM,24.8,19.4,80,30.27,1.8,WSW,28.8,-,0.00,Snow,Light Snow,240,2012-11-01 13:51:00
5:53 AM,24.1,19.9,84,30.27,1.8,WSW,28.8,-,0.00,Snow,Light Snow,240,2012-11-01 13:53:00
6:20 AM,24.8,19.4,80,30.25,3.0,WSW,27.6,-,0.00,Snow,Light Snow,240,2012-11-01 14:20:00
6:42 AM,24.8,21.2,86,30.24,2.5,WSW,28.8,-,0.00,Snow,Light Snow,240,2012-11-01 14:42:00
6:53 AM,24.1,19.9,84,30.24,2.0,WSW,27.6,-,0.00,Snow,Light Snow,240,2012-11-01 14:53:00
7:02 AM,24.8,21.2,86,30.23,1.2,WSW,27.6,-,0.00,Snow,Light Snow,240,2012-11-01 15:02:00
7:53 AM,24.1,21.0,88,30.20,1.2,WSW,28.8,-,0.00,Snow,Light Snow,240,2012-11-01 15:53:00
8:53 AM,25.0,21.9,88,30.17,0.8,SW,27.6,-,0.00,Snow,Light Snow,230,2012-11-01 16:53:00
9:04 AM,24.8,23.0,93,30.16,0.8,WSW,26.5,34.5,0.00,Snow,Light Snow,240,2012-11-01 17:04:00
9:53 AM,24.1,21.9,91,30.14,0.8,WSW,31.1,36.8,0.00,Snow,Light Snow,240,2012-11-01 17:53:00
10:53 AM,25.0,23.0,92,30.11,0.8,WSW,27.6,-,0.01,Snow,Light Snow,240,2012-11-01 18:53:00
11:49 AM,24.8,21.2,86,30.08,0.2,SW,32.2,-,0.00,Snow,Snow,230,2012-11-01 19:49:00
11:53 AM,25.0,21.9,88,30.07,0.2,SW,31.1,38.0,0.00,Snow,Snow,230,2012-11-01 19:53:00
12:15 PM,24.8,23.0,93,30.06,0.2,WSW,29.9,-,0.00,Snow,Snow,240,2012-11-01 20:15:00
12:26 PM,24.8,23.0,93,30.06,0.2,SW,29.9,-,0.01,Snow,Snow,230,2012-11-01 20:26:00
12:53 PM,26.1,24.1,92,30.06,0.5,WSW,26.5,35.7,0.01,Snow,Light Snow,250,2012-11-01 20:53:00
1:45 PM,26.6,24.8,93,30.04,0.5,WNW,27.6,32.2,0.03,Snow,Light Snow,290,2012-11-01 21:45:00
1:53 PM,27.0,24.1,89,30.04,1.0,WNW,27.6,-,0.03,Snow,Light Snow,290,2012-11-01 21:53:00
2:06 PM,26.6,24.8,93,30.03,1.5,WNW,25.3,31.1,0.00,Snow,Light Snow,290,2012-11-01 22:06:00
2:33 PM,26.6,24.8,93,30.02,0.8,WNW,25.3,-,0.00,Snow,Light Snow,300,2012-11-01 22:33:00
2:43 PM,26.6,24.8,93,30.02,1.0,WNW,25.3,-,0.00,Snow,Light Snow,290,2012-11-01 22:43:00
2:50 PM,26.6,24.8,93,30.02,0.8,WNW,24.2,-,0.00,Snow,Light Snow,290,2012-11-01 22:50:00
2:53 PM,26.1,25.0,96,30.02,1.0,WNW,23.0,-,0.00,Snow,Light Snow,290,2012-11-01 22:53:00
3:01 PM,26.6,24.8,93,30.02,3.0,WNW,21.9,-,0.00,Snow,Light Snow,290,2012-11-01 23:01:00
3:11 PM,26.6,24.8,93,30.01,2.0,West,23.0,-,0.00,Snow,Light Snow,280,2012-11-01 23:11:00
3:18 PM,26.6,24.8,93,30.01,0.8,WNW,24.2,-,0.00,Snow,Light Snow,290,2012-11-01 23:18:00
3:31 PM,26.6,24.8,93,30.01,1.0,WNW,19.6,-,0.00,Snow,Light Snow,300,2012-11-01 23:31:00
3:53 PM,27.1,24.1,88,30.01,1.0,WNW,19.6,-,0.01,Snow,Light Snow,300,2012-11-01 23:53:00
4:00 PM,26.6,23.0,86,30.01,2.5,WNW,19.6,-,0.00,Snow,Light Snow,300,2012-11-02 00:00:00
4:05 PM,26.6,23.0,86,30.01,0.8,WNW,19.6,-,0.00,Snow,Light Snow,300,2012-11-02 00:05:00
4:25 PM,26.6,23.0,86,30.00,1.2,WNW,19.6,-,0.01,Snow,Light Snow,300,2012-11-02 00:25:00
4:37 PM,26.6,23.0,86,30.00,1.0,WNW,20.7,-,0.01,Snow,Light Snow,290,2012-11-02 00:37:00
4:53 PM,27.0,23.0,85,30.01,2.5,WNW,19.6,-,0.01,Snow,Light Snow,290,2012-11-02 00:53:00
5:09 PM,26.6,24.8,93,30.00,1.2,WNW,13.8,-,0.00,Snow,Light Snow,300,2012-11-02 01:09:00
5:13 PM,26.6,24.8,93,30.00,0.8,North,13.8,-,0.00,Snow,Light Snow,360,2012-11-02 01:13:00
5:18 PM,26.6,24.8,93,30.01,1.0,North,15.0,-,0.00,Snow,Light Snow,350,2012-11-02 01:18:00
5:21 PM,26.6,24.8,93,30.01,1.5,North,15.0,21.9,0.00,Snow,Light Snow,350,2012-11-02 01:21:00
5:37 PM,26.6,24.8,93,30.01,2.5,North,17.3,-,0.00,Snow,Light Snow,350,2012-11-02 01:37:00
5:53 PM,27.0,24.1,89,30.02,2.0,North,15.0,-,0.00,Snow,Light Snow,360,2012-11-02 01:53:00
5:58 PM,26.6,23.0,86,30.02,4.0,North,16.1,-,0.00,Snow,Light Snow,350,2012-11-02 01:58:00
6:51 PM,24.8,23.0,93,30.04,3.0,North,21.9,29.9,0.00,Snow,Light Snow,10,2012-11-02 02:51:00
6:53 PM,24.6,22.1,90,30.04,4.0,North,24.2,29.9,0.00,Snow,Light Snow,10,2012-11-02 02:53:00
7:53 PM,21.6,18.0,86,30.07,4.0,North,21.9,29.9,0.00,Snow,Light Snow,360,2012-11-02 03:53:00
8:53 PM,19.0,15.1,85,30.11,5.0,North,17.3,25.3,0.00,Snow,Light Snow,360,2012-11-02 04:53:00
9:53 PM,17.6,10.9,75,30.13,3.0,North,18.4,27.6,0.00,Snow,Light Snow,10,2012-11-02 05:53:00
9:58 PM,17.6,10.4,73,30.13,2.5,North,17.3,-,0.00,Snow,Light Snow,10,2012-11-02 05:58:00
10:27 PM,15.8,10.4,79,30.14,5.0,North,18.4,-,0.00,Snow,Light Snow,350,2012-11-02 06:27:00
10:53 PM,16.5,10.0,76,30.15,2.0,North,20.7,25.3,0.00,Snow,Light Snow,360,2012-11-02 06:53:00
11:05 PM,15.8,10.4,79,30.15,6.0,North,18.4,-,0.00,Snow,Light Snow,360,2012-11-02 07:05:00
11:32 PM,15.8,10.4,79,30.16,1.8,North,20.7,26.5,0.00,Snow,Light Snow,10,2012-11-02 07:32:00
11:50 PM,15.8,10.4,79,30.17,3.0,NNE,18.4,27.6,0.00,Snow,Light Snow,30,2012-11-02 07:50:00
11:53 PM,15.6,10.0,79,30.17,5.0,NE,18.4,31.1,0.00,Snow,Light Snow,40,2012-11-02 07:53:00